Date,TemperatureHighF,TemperatureAvgF,TemperatureLowF,DewpointHighF,DewpointAvgF,DewpointLowF,HumidityHigh,HumidityAvg,HumidityLow,PressureMaxIn,PressureMinIn,WindSpeedMaxMPH,WindSpeedAvgMPH,GustSpeedMaxMPH,PrecipitationSumIn
2013-1-1,18.0,1.8,-15.3,11.9,-7.0,-25.1,77,66,53,30.30,30.05,16,4,17,0.00
2013-1-2,18.6,13.9,11.4,15.9,9.4,6.7,89,82,75,30.10,29.98,11,4,13,0.00
2013-1-3,18.0,10.7,7.0,12.8,2.8,-3.2,80,70,59,30.29,30.10,17,7,19,0.00
2013-1-4,26.6,19.1,10.8,11.7,9.0,4.4,77,65,52,30.15,30.04,18,6,19,0.00
2013-1-5,20.3,14.7,7.2,10.7,6.6,1.5,79,70,59,30.11,29.88,12,4,14,0.00
2013-1-6,18.6,13.2,7.5,10.3,4.7,-1.5,81,69,58,30.25,30.04,16,5,16,0.00
2013-1-7,33.4,26.9,18.1,20.7,17.6,10.1,80,68,57,30.04,29.92,30,8,35,0.00
2013-1-8,32.3,25.4,12.7,25.8,19.2,8.2,88,77,69,30.01,29.79,19,5,20,0.00
2013-1-9,32.0,28.6,23.9,23.9,18.3,14.2,79,65,55,30.39,29.94,28,8,29,0.00
2013-1-10,38.8,33.1,28.2,33.0,21.1,13.9,100,63,38,30.32,29.71,17,7,18,0.00
2013-1-11,39.3,35.5,33.0,39.3,35.5,33.0,100,100,100,29.71,29.36,21,6,21,0.00
2013-1-12,36.9,12.6,2.5,36.8,4.0,-7.3,100,68,57,30.06,29.37,31,12,41,0.00
2013-1-13,6.6,1.7,0.0,-2.9,-6.8,-8.6,71,67,62,30.22,30.01,14,4,14,0.00
2013-1-14,11.1,6.1,1.9,3.8,-2.3,-5.1,75,68,57,30.37,30.21,17,3,18,0.00
2013-1-15,28.2,19.0,8.3,14.5,8.8,1.5,78,65,49,30.24,29.82,24,6,25,0.00
2013-1-16,35.1,24.6,10.2,29.8,16.6,-2.8,92,72,45,30.20,29.64,26,7,26,0.00
2013-1-17,16.7,9.9,0.7,8.1,-1.5,-9.2,73,60,47,30.36,30.20,15,4,17,0.00
2013-1-18,39.5,29.5,15.2,28.7,21.4,8.0,84,72,58,30.25,29.71,22,7,23,0.00
2013-1-19,37.7,22.7,0.6,28.5,14.7,-9.4,88,72,48,30.21,29.65,39,8,39,0.00
2013-1-20,6.9,1.3,-4.3,-2.6,-10.5,-16.6,71,57,46,30.37,30.21,21,7,21,0.00
2013-1-21,-4.3,-8.1,-12.7,-16.1,-20.6,-25.5,63,53,48,30.31,30.23,20,8,20,0.00
2013-1-22,4.5,-4.9,-12.4,-6.7,-16.5,-22.7,62,57,49,30.36,30.20,12,3,12,0.00
2013-1-23,14.8,6.3,-5.5,5.0,-6.7,-23.0,77,56,38,30.56,30.11,23,5,23,0.00
2013-1-24,12.6,1.5,-7.5,-2.2,-15.1,-24.2,51,45,37,30.62,30.14,20,6,24,0.00
2013-1-25,17.4,10.8,1.7,9.3,-1.0,-8.6,70,59,48,30.27,29.92,24,8,25,0.00
2013-1-26,24.1,12.0,-3.1,8.2,-0.9,-11.5,71,57,44,30.30,30.07,17,5,18,0.00
2013-1-27,30.8,29.1,23.7,30.0,21.2,7.8,100,75,48,30.08,29.77,16,5,18,0.00
2013-1-28,32.4,30.1,28.9,32.3,30.1,28.9,100,100,100,29.87,29.61,12,2,13,0.00
2013-1-29,33.4,30.4,26.2,32.5,27.8,18.7,100,90,73,29.72,29.50,14,3,16,0.00
2013-1-30,26.2,15.7,6.7,18.7,6.7,-3.9,75,67,61,29.74,29.61,19,8,20,0.00
2013-1-31,6.7,-1.5,-9.7,-2.1,-12.3,-22.1,69,59,53,30.24,29.74,21,10,22,0.00
2013-2-1,5.2,-4.8,-14.1,-1.0,-15.7,-24.2,75,59,46,30.28,30.00,14,4,15,0.00
2013-2-2,9.0,4.6,0.1,3.0,-3.7,-7.6,76,68,57,30.14,29.93,11,2,11,0.00
2013-2-3,10.6,8.4,2.3,5.0,0.3,-5.9,79,69,57,30.06,29.92,16,4,19,0.00
2013-2-4,13.3,8.7,0.0,7.9,-1.4,-6.3,79,64,48,30.03,29.72,14,2,16,0.00
2013-2-5,27.3,20.6,3.9,23.4,14.0,-1.7,92,76,59,30.05,29.64,17,5,19,0.00
2013-2-6,24.9,14.7,0.1,18.0,8.5,-5.9,81,76,71,30.08,29.89,17,3,19,0.00
2013-2-7,25.2,23.4,18.2,21.1,18.7,13.6,91,82,72,30.21,29.94,13,3,14,0.00
2013-2-8,23.8,21.8,20.0,17.6,14.0,11.2,77,72,63,30.34,30.18,19,4,19,0.00
2013-2-9,30.2,26.9,23.6,25.2,22.0,17.5,89,82,77,30.19,29.89,23,8,24,0.00
2013-2-10,32.2,29.3,26.7,32.2,27.5,22.0,100,93,82,29.90,29.25,19,5,19,0.00
2013-2-11,27.9,22.8,14.6,27.9,16.4,7.0,100,77,64,30.02,29.32,23,9,25,0.00
2013-2-12,33.7,22.7,12.0,21.2,13.7,4.7,77,69,56,30.02,29.78,19,6,20,0.00
2013-2-13,36.7,27.3,15.1,31.0,20.0,9.7,98,74,55,29.78,29.55,15,4,15,0.00
2013-2-14,31.3,24.3,11.9,31.1,15.6,-1.1,100,71,43,30.17,29.56,14,4,15,0.00
2013-2-15,14.7,8.6,2.4,-0.5,-3.3,-7.3,69,58,47,30.29,30.17,16,6,17,0.00
2013-2-16,15.1,5.4,-5.3,3.1,-4.1,-13.2,74,65,53,30.24,30.08,9,2,9,0.00
2013-2-17,30.0,20.6,7.8,18.9,10.2,-1.9,73,64,56,30.09,29.61,33,10,36,0.00
2013-2-18,31.2,24.5,7.1,27.2,16.2,-2.4,85,70,61,29.77,29.51,25,8,26,0.00
2013-2-20,10.7,7.6,3.6,-3.9,-5.3,-7.9,60,55,50,29.59,29.57,5,0,5,0.00
2013-2-21,20.6,12.2,0.5,6.1,-0.1,-9.7,67,58,48,29.62,29.25,15,4,16,0.00
2013-2-22,23.9,20.4,17.7,17.5,14.3,6.4,84,77,58,29.25,29.05,12,3,12,0.00
2013-2-23,23.1,17.1,5.5,16.3,11.2,-0.8,83,77,73,29.17,29.05,13,4,13,0.00
2013-2-24,30.7,15.4,-3.6,16.3,6.1,-11.3,77,67,53,29.30,29.16,10,1,10,0.00
2013-2-25,33.0,25.4,12.5,20.1,16.9,6.9,81,70,57,29.31,29.22,7,1,7,0.00
2013-2-26,34.1,24.6,8.1,22.7,17.1,2.3,84,73,62,29.26,29.07,13,3,15,0.00
2013-2-27,37.3,30.5,26.1,21.6,19.8,17.6,74,65,48,29.23,29.06,19,5,19,0.00
2013-2-28,28.2,26.4,22.6,17.9,15.8,10.9,70,64,59,29.41,29.22,11,2,12,0.00
2013-3-1,27.7,22.8,15.5,12.8,10.0,5.7,66,58,49,29.54,29.41,13,3,16,0.00
2013-3-2,27.2,17.1,4.5,8.7,2.2,-2.7,77,54,32,29.54,29.37,10,1,12,0.00
2013-3-3,29.9,23.1,14.2,7.5,3.8,-1.1,58,44,32,29.37,29.17,23,5,23,0.00
2013-3-4,25.6,22.7,20.3,17.7,12.9,6.7,83,67,44,29.23,29.13,25,6,25,0.00
2013-3-5,26.4,23.3,19.8,20.6,18.6,12.9,89,82,73,29.50,29.16,12,2,12,0.00
2013-3-6,26.0,20.0,6.0,14.7,11.2,-0.7,76,69,58,29.61,29.49,12,2,13,0.00
2013-3-7,27.6,16.1,-1.1,14.2,6.1,-8.8,78,65,55,29.57,29.47,16,3,16,0.00
2013-3-8,35.6,26.2,13.3,25.1,18.1,7.8,81,71,62,29.52,29.27,20,4,21,0.00
2013-3-9,35.1,33.8,32.0,35.0,32.3,23.7,100,95,67,30.09,28.98,21,5,22,0.00
2013-3-10,33.1,31.4,27.9,32.9,26.4,20.7,100,82,72,30.24,30.06,18,5,19,0.00
2013-3-11,28.0,25.4,19.7,21.3,17.2,11.2,76,71,60,30.15,30.04,13,4,14,0.00
2013-3-12,25.4,22.1,18.5,15.7,11.4,5.2,74,63,46,30.48,30.12,22,6,22,0.00
2013-3-13,18.7,16.8,15.3,8.1,7.7,7.0,70,67,62,30.54,30.48,9,5,11,0.00
2013-3-16,23.9,19.3,11.4,11.4,7.3,-0.2,76,60,47,30.34,30.15,13,5,13,0.00
2013-3-17,26.0,16.5,6.7,16.4,2.4,-6.1,67,53,47,30.36,29.96,23,6,25,0.00
2013-3-18,28.1,19.2,9.6,26.9,11.7,-0.5,95,72,60,29.96,29.71,31,13,31,0.00
2013-3-19,19.1,10.4,4.7,1.5,-3.7,-8.8,64,53,35,30.30,29.93,25,10,26,0.00
2013-3-20,16.9,10.4,3.6,-1.4,-5.8,-10.0,55,47,40,30.33,30.21,20,8,24,0.00
2013-3-21,24.5,12.2,-5.0,4.8,-2.2,-14.1,68,53,39,30.24,30.13,10,0,11,0.00
2013-3-22,9.7,6.2,2.7,-1.0,-2.9,-5.8,68,66,62,30.20,30.18,0,0,0,0.00
2013-4-5,39.7,32.9,24.6,30.2,22.0,13.0,91,67,37,30.06,29.69,24,5,24,0.00
2013-4-6,54.9,41.4,33.7,41.4,31.8,24.4,90,69,54,29.70,29.32,24,7,27,0.00
2013-4-7,45.9,38.8,33.5,36.8,30.8,27.0,87,73,61,29.78,29.57,16,2,16,0.00
2013-4-8,45.6,41.2,38.0,40.8,38.0,34.2,100,89,75,29.85,29.49,10,3,13,0.00
2013-4-9,40.0,36.1,29.8,34.3,29.5,22.9,96,78,55,29.97,29.77,22,5,22,0.00
2013-4-10,35.2,31.4,27.4,27.3,23.7,18.5,97,74,55,30.00,29.71,22,5,22,0.00
2013-4-11,34.1,33.0,32.1,25.9,23.9,19.8,77,69,56,29.72,29.61,18,6,21,0.00
2013-4-12,32.4,28.9,25.3,27.7,25.6,23.9,100,88,71,30.03,29.86,13,3,13,0.00
2013-4-13,33.6,29.8,25.9,26.7,21.6,18.7,97,73,55,30.15,30.02,18,4,18,0.00
2013-4-14,36.0,30.7,27.8,35.6,25.8,18.4,99,82,62,30.13,29.65,23,4,25,0.00
2013-4-15,36.8,33.7,30.0,30.6,24.0,19.7,86,67,59,30.18,29.73,32,12,32,0.00
2013-4-16,42.4,34.9,30.4,24.8,22.7,21.3,74,62,44,30.50,30.16,19,4,19,0.00
2013-4-17,37.6,34.4,30.3,32.9,26.9,22.6,97,74,61,30.50,30.08,17,4,19,0.00
2013-4-18,32.5,30.4,28.9,32.3,29.9,27.2,100,98,88,30.11,29.71,18,5,18,0.00
2013-4-19,35.3,30.2,27.1,28.9,22.8,13.7,100,77,47,30.18,29.69,22,6,27,0.00
2013-4-20,36.4,29.4,16.4,15.7,10.1,5.3,78,47,28,30.48,30.18,11,1,11,0.00
2013-4-21,49.0,39.3,31.2,46.1,33.0,12.6,100,79,44,30.49,30.20,31,8,37,0.00
2013-4-22,40.5,34.4,30.0,34.6,30.1,26.4,100,85,60,30.39,30.28,14,2,17,0.00
2013-4-23,38.0,32.0,25.4,30.6,23.3,13.3,100,74,40,30.35,30.24,12,2,14,0.00
2013-4-24,46.6,34.5,23.6,30.8,23.6,16.5,86,66,37,30.26,30.10,27,7,31,0.00
2013-4-25,47.9,38.3,30.3,28.7,24.5,17.0,81,60,32,30.40,30.18,18,6,21,0.00
2013-4-26,68.7,55.9,42.9,39.6,34.4,25.8,63,46,26,30.33,30.15,29,6,30,0.00
2013-4-27,71.3,56.8,35.9,42.8,35.6,30.3,87,50,24,30.33,30.09,19,3,19,0.00
2013-4-28,77.5,61.3,49.4,52.8,43.1,36.1,78,54,24,30.10,29.84,28,6,28,0.00
2013-4-29,70.9,60.2,49.0,53.4,43.4,31.8,86,56,37,30.02,29.74,15,3,17,0.00
2013-4-30,68.2,62.3,55.4,55.7,42.3,22.2,76,51,22,30.17,29.62,24,7,24,0.00
2013-5-1,55.3,38.1,31.6,35.9,31.4,27.5,93,79,38,30.66,30.16,14,3,18,0.00
2013-5-2,44.3,37.7,32.4,30.1,23.7,20.0,88,59,40,30.71,30.58,16,4,17,0.00
2013-5-3,36.0,32.0,29.2,30.0,25.0,19.4,87,76,52,30.59,30.32,18,3,18,0.00
2013-5-4,49.0,38.2,31.0,39.3,33.6,26.8,97,84,66,30.35,30.28,12,3,12,0.00
2013-5-5,63.2,47.6,37.0,43.7,37.4,32.3,85,69,48,30.36,30.26,8,1,9,0.00
2013-5-6,71.0,56.9,40.7,49.8,42.5,38.4,100,64,32,30.31,30.20,11,1,11,0.00
2013-5-7,74.6,61.9,46.4,52.9,43.9,38.6,100,56,28,30.26,30.15,15,1,15,0.00
2013-5-8,73.3,62.7,53.5,55.4,47.2,40.4,96,60,32,30.21,30.12,15,1,16,0.00
2013-5-9,57.1,51.9,42.2,56.2,46.5,24.3,99,83,48,30.28,30.14,17,3,19,0.00
2013-5-10,63.3,49.2,36.1,38.9,24.2,17.8,64,41,18,30.30,30.07,11,2,14,0.00
2013-5-11,54.3,45.5,38.6,36.6,21.3,13.0,59,39,24,30.37,30.06,25,6,25,0.00
2013-5-12,56.0,44.6,33.3,24.7,16.4,9.6,58,35,16,30.41,30.27,14,2,16,0.00
2013-5-13,70.9,54.9,33.7,41.6,29.9,20.2,76,41,25,30.30,29.85,27,6,30,0.00
2013-5-14,95.3,73.5,53.3,50.5,41.0,23.0,66,36,12,29.89,29.65,29,6,34,0.00
2013-5-15,68.1,62.8,58.8,41.0,39.5,37.8,48,43,33,29.99,29.88,16,5,18,0.00
2013-5-16,79.1,72.0,51.8,44.9,38.2,27.9,66,31,21,29.72,29.63,18,3,18,0.00
2013-5-17,66.3,55.3,52.4,55.9,50.4,29.6,100,87,26,29.79,29.68,17,4,19,0.00
2013-5-18,78.4,64.5,53.3,67.6,58.7,53.3,100,84,53,29.81,29.58,20,4,24,0.00
2013-5-19,77.8,67.3,61.3,67.9,63.4,61.1,100,89,59,29.60,29.34,22,4,24,0.00
2013-5-20,69.2,63.4,56.1,64.8,58.6,51.6,100,86,55,29.40,29.30,24,5,24,0.00
2013-5-21,63.9,57.1,49.2,60.2,54.5,48.2,100,92,59,29.50,29.30,16,3,16,0.00
2013-5-22,50.9,47.5,44.2,50.1,47.5,44.2,100,100,84,29.77,29.48,12,2,17,0.00
2013-5-23,61.2,51.9,42.9,46.2,32.8,25.2,92,53,27,30.13,29.76,14,2,15,0.00
2013-5-24,65.2,52.3,35.3,51.3,35.3,26.0,100,55,32,30.17,29.95,20,2,20,0.00
2013-5-25,56.8,52.9,50.5,51.4,46.0,38.8,100,78,60,30.05,29.99,29,5,29,0.00
2013-5-26,54.9,51.9,49.5,45.9,40.1,34.9,76,64,53,30.01,29.81,24,4,26,0.00
2013-5-27,58.1,54.1,51.0,55.9,51.5,44.5,100,91,71,29.84,29.62,16,3,25,0.00
2013-5-28,57.6,53.9,50.7,57.6,53.9,50.7,100,100,100,29.63,29.51,10,1,12,0.00
2013-5-29,72.2,61.7,51.2,71.5,61.5,51.2,100,99,90,29.62,29.43,22,2,29,0.00
2013-5-30,72.4,67.0,62.0,67.2,62.6,58.5,100,87,63,29.48,29.31,30,6,30,0.00
2013-5-31,74.8,66.1,59.2,63.3,53.9,44.1,100,68,35,29.37,29.31,34,6,35,0.00
2013-6-1,68.1,58.2,50.3,60.7,51.1,38.8,93,78,60,29.74,29.35,17,2,19,0.00
2013-6-2,63.9,54.7,47.3,44.2,36.1,31.9,88,51,32,29.87,29.73,12,1,15,0.00
2013-6-3,65.8,56.4,42.1,51.4,41.1,34.2,100,62,34,29.86,29.71,15,1,15,0.00
2013-6-4,60.2,56.9,52.8,54.3,47.4,40.9,100,72,50,29.87,29.77,20,3,22,0.00
2013-6-5,63.4,54.8,52.1,60.1,54.3,49.6,100,98,86,29.84,29.72,11,1,12,0.00
2013-6-6,54.3,51.8,48.9,54.0,51.7,48.8,100,100,98,29.83,29.75,7,1,8,0.00
2013-6-7,63.2,55.9,51.4,54.8,50.6,45.8,100,85,54,29.85,29.70,4,0,4,0.00
2013-6-8,67.5,60.6,52.3,57.4,51.1,46.6,100,74,48,29.72,29.67,12,1,14,0.00
2013-6-9,65.3,58.6,54.5,64.2,58.2,54.5,100,99,79,29.70,29.55,19,3,24,0.00
2013-6-10,71.7,63.4,56.2,65.4,59.2,56.2,100,88,61,29.66,29.59,12,1,12,0.00
2013-6-11,75.4,65.1,53.6,71.4,62.7,53.6,100,93,68,29.70,29.59,9,0,9,0.00
2013-6-12,64.1,63.6,62.9,64.1,63.6,62.9,100,100,100,29.68,29.64,3,0,4,0.00
2013-6-14,70.9,69.3,66.5,59.8,56.3,55.4,79,63,58,29.56,29.50,10,2,11,0.00
2013-6-15,73.7,66.8,60.4,70.9,64.8,58.5,100,94,61,29.56,29.49,24,1,24,0.00
2013-6-16,82.5,67.4,53.3,61.0,52.8,42.5,100,66,25,29.58,29.49,18,1,20,0.00
2013-6-17,79.0,69.3,55.6,60.1,52.4,46.5,100,58,34,29.64,29.51,11,1,12,0.00
2013-6-18,72.7,64.3,56.0,57.0,52.2,47.8,77,65,48,29.73,29.64,10,1,10,0.00
2013-6-19,80.5,69.6,57.2,59.2,55.6,51.7,97,64,38,29.70,29.58,14,2,14,0.00
2013-6-20,85.3,77.2,68.5,64.2,59.3,54.5,69,55,40,29.65,29.51,18,4,19,0.00
2013-6-21,79.0,71.1,62.9,70.1,63.9,59.5,100,80,52,29.62,29.39,16,3,25,0.00
2013-6-22,78.6,75.4,70.7,72.1,68.7,66.3,100,80,68,29.84,29.74,8,1,16,0.00
2013-6-23,79.3,72.3,64.9,71.4,66.6,59.6,100,84,53,29.82,29.61,24,5,26,0.00
2013-6-24,78.0,69.4,61.0,73.1,66.4,61.0,100,91,65,29.84,29.72,15,1,19,0.00
2013-6-25,81.3,72.5,63.8,75.9,67.9,63.8,100,87,65,29.75,29.63,14,2,17,0.00
2013-6-26,84.7,76.5,69.2,78.9,68.3,58.0,100,79,44,29.75,29.57,12,2,17,0.00
2013-6-27,83.4,75.5,65.3,68.9,57.8,45.3,100,60,27,29.76,29.71,17,3,21,0.00
2013-6-28,75.4,69.6,64.0,65.0,55.4,50.5,100,62,46,29.74,29.67,19,3,20,0.00
2013-6-29,74.4,66.4,58.2,65.2,55.3,42.3,100,72,35,29.90,29.67,11,2,16,0.00
2013-6-30,78.3,66.3,51.8,59.4,49.2,40.7,100,60,29,30.04,29.89,11,1,16,0.00
2013-7-1,81.9,69.6,54.6,66.2,53.3,45.1,100,63,30,30.10,30.03,7,1,16,0.00
2013-7-2,80.0,68.8,55.2,58.6,51.1,44.4,100,59,32,30.08,29.96,10,1,16,0.00
2013-7-3,80.6,69.0,53.7,65.1,52.5,41.6,100,63,27,30.00,29.87,7,1,16,0.00
2013-7-4,84.0,73.6,62.1,59.8,53.7,47.6,86,53,29,29.90,29.78,17,3,17,0.00
2013-7-5,83.4,75.0,66.5,61.2,56.2,52.8,65,53,39,29.83,29.73,22,5,24,0.00
2013-7-6,86.2,77.3,70.6,63.7,58.6,55.7,63,53,40,29.81,29.73,13,4,16,0.00
2013-7-7,86.5,79.2,71.9,70.8,63.2,57.6,95,59,46,29.81,29.73,15,2,16,0.00
2013-7-8,85.4,74.5,66.3,71.5,66.5,58.5,100,79,42,29.92,29.80,5,1,16,0.00
2013-7-9,80.8,75.3,67.6,74.6,67.1,58.6,100,78,56,29.88,29.68,18,4,20,0.00
2013-7-10,77.6,70.1,60.7,63.5,52.5,44.1,100,57,32,29.98,29.84,14,2,16,0.00
2013-7-11,80.6,69.6,56.3,67.5,54.5,47.3,100,66,32,30.04,29.90,16,2,16,0.00
2013-7-12,70.4,69.1,67.9,52.1,51.1,50.0,57,53,49,29.93,29.91,9,4,16,0.00
2013-7-13,74.7,70.7,62.3,71.5,61.3,51.7,100,74,56,29.99,29.86,15,4,25,0.00
2013-7-14,80.9,73.1,67.2,70.8,63.0,55.1,100,73,48,30.10,29.96,13,3,16,0.00
2013-7-15,83.3,74.9,65.3,73.8,64.7,54.5,100,75,38,30.15,30.07,10,2,10,0.00
2013-7-16,86.9,79.4,71.9,76.3,69.3,61.3,100,75,43,30.13,30.07,11,3,11,0.00
2013-7-17,88.2,80.0,70.8,75.8,67.6,58.4,100,71,38,30.17,30.02,13,2,13,0.00
2013-7-18,88.2,81.7,74.8,75.3,67.0,60.5,99,64,40,30.03,29.69,19,5,19,0.00
2013-7-19,81.1,76.6,67.7,74.8,60.6,49.6,100,61,35,29.82,29.65,19,3,19,0.00
2013-7-20,77.4,69.7,60.6,68.5,57.9,49.6,100,69,43,29.87,29.79,7,1,14,0.00
2013-7-21,77.0,68.1,56.7,70.0,58.1,44.8,100,72,49,29.87,29.71,11,2,12,0.00
2013-7-22,83.4,72.4,64.6,74.7,61.9,49.4,100,74,39,29.77,29.60,16,4,16,0.00
2013-7-23,73.3,65.6,58.6,59.1,49.5,42.2,100,59,34,29.94,29.76,8,1,10,0.00
2013-7-24,72.2,63.4,54.3,61.7,55.6,48.9,100,79,45,29.99,29.88,7,1,8,0.00
2013-7-25,78.5,69.6,59.4,70.3,60.9,53.4,100,77,42,29.90,29.81,10,2,10,0.00
2013-7-26,69.0,62.2,55.8,67.2,52.2,38.9,100,73,45,29.99,29.81,15,3,15,0.00
2013-7-27,60.9,55.4,49.9,50.0,42.6,37.5,98,63,43,29.99,29.84,11,2,11,0.00
2013-7-28,70.5,58.7,50.8,54.2,43.4,39.2,100,58,38,29.98,29.86,7,1,10,0.00
2013-7-29,72.4,61.7,48.2,60.3,50.1,44.2,100,71,38,30.04,29.97,9,1,9,0.00
2013-7-30,68.8,64.9,60.3,67.6,62.3,50.3,100,92,59,30.01,29.95,6,1,6,0.00
2013-7-31,75.8,66.2,58.5,69.9,57.6,45.6,100,78,41,29.99,29.90,11,2,11,0.00
2013-8-1,77.1,65.2,50.8,64.5,53.0,43.7,100,70,35,29.96,29.77,7,1,7,0.00
2013-8-2,74.7,65.4,53.8,64.3,51.7,42.2,100,67,33,29.95,29.76,6,1,6,0.00
2013-8-3,75.0,63.3,49.7,61.1,48.4,40.7,100,66,31,30.11,29.95,6,1,6,0.00
2013-8-4,70.1,60.5,48.2,59.7,51.4,45.6,100,75,43,30.14,29.91,6,1,6,0.00
2013-8-5,77.7,65.7,58.2,69.2,61.9,54.6,100,89,49,29.94,29.70,9,2,9,0.00
2013-8-6,80.4,66.2,54.5,66.7,59.4,54.5,100,83,42,29.77,29.60,13,2,13,0.00
2013-8-7,73.5,64.0,56.0,62.1,52.5,40.1,100,73,31,29.95,29.70,8,1,8,0.00
2013-8-8,70.3,60.5,51.5,64.0,55.6,45.5,100,87,42,29.97,29.90,7,1,7,0.00
2013-8-9,72.4,63.4,54.2,63.0,51.2,42.0,100,70,35,30.04,29.91,8,1,11,0.00
2013-8-10,72.5,64.5,56.8,62.5,52.3,40.9,100,71,33,30.10,29.99,5,1,5,0.00
2013-8-11,76.6,66.9,61.3,67.5,60.7,53.3,100,83,45,30.00,29.90,6,1,6,0.00
2013-8-12,76.3,67.6,58.7,64.8,54.0,43.0,100,68,32,29.97,29.91,8,1,9,0.00
2013-8-13,72.0,62.4,52.1,59.3,46.9,34.5,100,65,26,30.10,29.97,7,1,7,0.00
2013-8-14,73.2,62.1,49.6,58.0,47.9,38.5,100,67,29,30.18,30.08,9,2,11,0.00
2013-8-15,74.0,62.2,52.8,61.3,53.0,42.8,100,77,33,30.11,30.05,8,1,8,0.00
2013-8-16,75.2,64.1,53.2,62.9,52.2,41.2,100,72,30,30.18,30.11,8,1,9,0.00
2013-8-17,77.2,65.8,53.5,59.8,51.2,42.8,100,66,30,30.18,30.08,13,2,13,0.00
2013-8-18,78.1,67.9,57.5,59.4,52.6,46.2,97,62,33,30.12,29.98,13,3,13,0.00
2013-8-19,82.0,71.7,64.0,65.9,59.8,52.4,86,67,47,30.02,29.88,13,3,13,0.00
2013-8-20,84.1,75.6,67.9,75.5,66.8,61.4,100,77,48,29.91,29.84,12,3,12,0.00
2013-8-21,82.6,75.0,70.2,77.2,72.7,66.0,100,93,66,29.97,29.82,11,2,12,0.00
2013-8-22,82.2,72.6,59.8,71.2,51.0,41.7,100,52,25,30.10,29.97,11,1,11,0.00
2013-8-23,81.8,70.0,57.2,68.0,56.7,44.2,100,65,39,30.12,30.01,10,2,10,0.00
2013-8-24,85.4,76.3,69.0,68.6,66.0,62.8,93,72,49,30.06,29.92,22,7,22,0.00
2013-8-25,89.1,81.8,75.2,69.8,66.7,63.6,81,61,46,30.00,29.92,17,6,17,0.00
2013-8-26,89.3,81.8,74.7,76.5,69.6,61.9,100,69,42,29.98,29.83,13,4,16,0.00
2013-8-27,90.9,81.4,73.2,74.5,68.7,62.0,100,68,41,29.90,29.79,9,2,14,0.00
2013-8-28,87.4,76.8,66.6,78.5,68.3,57.7,100,79,37,29.99,29.89,9,1,11,0.00
2013-8-29,88.9,79.7,72.8,78.6,67.3,53.2,100,72,30,29.98,29.83,13,3,13,0.00
2013-8-30,79.5,74.4,67.4,74.9,64.3,53.3,100,75,41,29.91,29.80,8,2,12,0.00
2013-8-31,83.4,71.2,60.1,70.9,61.8,55.3,100,77,39,29.88,29.71,8,2,8,0.00
2013-9-1,71.2,66.9,61.2,68.5,56.9,47.7,100,73,45,29.96,29.72,9,2,10,0.00
2013-9-2,63.4,56.3,48.8,54.7,49.6,42.0,100,80,46,30.08,29.95,8,1,10,0.00
2013-9-3,73.7,58.4,44.5,61.8,50.0,41.5,100,79,36,30.08,29.97,8,1,8,0.00
2013-9-4,83.3,69.2,55.3,68.4,56.9,49.8,100,71,32,30.13,29.98,6,1,6,0.00
2013-9-5,80.8,69.7,59.8,69.0,54.6,47.8,100,61,38,30.19,30.08,9,2,10,0.00
2013-9-6,85.7,75.4,67.2,72.8,60.7,49.9,100,67,32,30.08,29.85,18,4,18,0.00
2013-9-7,88.4,77.3,66.2,74.2,59.9,50.5,100,60,28,29.99,29.84,8,2,11,0.00
2013-9-8,75.7,69.0,63.9,66.5,59.5,50.9,97,74,45,30.02,29.86,13,3,13,0.00
2013-9-9,88.9,76.0,66.7,75.8,65.0,55.8,100,75,33,29.87,29.62,12,4,14,0.00
2013-9-10,78.2,71.4,64.5,70.7,61.6,49.5,100,75,38,29.97,29.75,8,2,11,0.00
2013-9-11,81.7,72.9,62.2,65.5,46.8,35.5,100,46,20,30.02,29.96,9,2,16,0.00
2013-9-12,71.4,62.6,50.8,52.7,40.0,31.3,89,47,24,30.18,30.02,10,2,10,0.00
2013-9-13,66.1,54.1,42.1,52.4,38.9,27.7,100,65,24,30.23,30.04,8,1,8,0.00
2013-9-14,70.4,57.6,48.0,56.3,40.7,32.7,100,59,26,30.05,29.83,12,3,12,0.00
2013-9-15,62.6,56.1,47.9,58.6,52.5,43.8,100,89,57,30.27,29.83,10,2,10,0.00
2013-9-16,63.6,51.1,38.7,47.4,36.5,27.5,100,65,26,30.36,30.19,10,2,10,0.00
2013-9-17,63.3,54.2,45.7,57.8,43.3,32.7,100,69,45,30.21,29.89,21,4,21,0.00
2013-9-18,74.4,66.0,57.8,72.6,65.6,57.8,100,99,88,29.90,29.66,12,4,15,0.00
2013-9-19,74.2,69.1,62.9,73.5,67.0,53.1,100,93,60,29.78,29.61,13,3,15,0.00
2013-9-20,62.9,56.0,49.8,57.5,49.7,40.2,100,81,46,29.90,29.76,11,3,11,0.00
2013-9-21,60.7,51.2,44.2,49.4,43.3,35.9,100,79,40,29.95,29.86,5,1,8,0.00
2013-9-22,71.9,57.1,43.1,51.8,45.9,42.1,100,72,35,29.92,29.80,16,4,16,0.00
2013-9-23,70.7,60.3,51.6,48.9,42.8,35.5,89,56,28,29.91,29.82,23,5,23,0.00
2013-9-24,72.5,59.8,49.5,51.0,45.7,39.4,100,64,31,29.93,29.86,11,2,13,0.00
2013-9-25,71.6,59.2,47.0,57.5,45.9,38.9,100,68,32,29.93,29.82,12,2,13,0.00
2013-9-26,78.3,65.3,54.1,52.6,49.7,44.7,90,61,32,29.88,29.78,24,6,24,0.00
2013-9-27,80.9,71.5,63.8,60.4,52.9,48.0,84,54,32,29.88,29.75,21,7,21,0.00
2013-9-28,69.6,59.5,46.1,64.2,50.7,38.4,100,75,51,29.91,29.61,18,5,18,0.00
2013-9-29,73.2,58.4,45.5,46.1,36.1,23.9,100,52,16,29.92,29.75,16,4,16,0.00
2013-9-30,76.2,65.5,57.5,39.9,36.4,32.2,46,35,23,29.76,29.56,19,6,19,0.00
2013-10-1,73.3,62.4,44.9,44.4,31.6,7.4,95,38,8,29.95,29.56,22,4,22,0.00
2013-10-2,73.4,57.3,39.6,55.4,36.1,17.2,100,61,13,30.00,29.77,18,3,18,0.00
2013-10-3,58.0,56.2,54.6,58.0,56.2,54.6,100,100,100,29.88,29.74,8,2,15,0.00
2013-10-4,55.8,54.6,52.9,55.8,54.6,52.9,100,100,100,29.93,29.78,13,3,15,0.00
2013-10-5,58.2,52.1,39.0,58.2,46.6,34.6,100,84,49,29.80,29.69,15,2,18,0.00
2013-10-6,51.5,44.7,38.1,51.5,44.6,38.1,100,100,98,29.81,29.64,9,1,12,0.00
2013-10-7,63.5,49.6,39.0,49.2,38.3,25.6,100,73,24,29.94,29.79,7,1,7,0.00
2013-10-8,73.9,61.7,47.1,39.6,32.8,27.4,75,36,18,29.93,29.78,28,7,28,0.00
2013-10-9,63.8,61.8,60.1,35.8,34.7,33.3,40,36,32,29.93,29.88,16,7,17,0.00
2013-10-20,36.9,36.5,35.9,32.5,29.3,27.2,86,75,68,29.99,29.91,10,4,17,0.00
2013-10-21,36.3,32.5,24.4,28.0,12.1,5.0,73,43,29,30.08,29.99,16,5,17,0.00
2013-10-22,37.4,30.6,21.5,32.7,20.8,13.5,100,69,45,30.14,30.06,6,1,13,0.00
2013-10-23,35.7,32.7,29.9,23.1,14.3,6.0,68,48,32,30.21,30.10,14,3,14,0.00
2013-10-24,41.2,35.0,30.6,22.1,14.9,8.0,64,44,32,30.42,30.21,10,3,11,0.00
2013-10-25,55.9,40.6,23.9,31.2,24.3,18.3,100,58,30,30.43,29.90,22,6,22,0.00
2013-10-26,49.6,41.0,32.2,31.2,19.1,15.7,55,42,30,30.22,29.91,16,5,16,0.00
2013-10-27,56.1,41.1,28.5,21.7,18.5,14.9,68,43,22,30.23,29.92,20,4,20,0.00
2013-10-28,40.9,35.2,29.0,20.5,12.4,5.7,57,40,25,30.52,30.23,15,4,15,0.00
2013-10-29,40.4,35.6,28.8,35.1,18.7,8.1,92,50,41,30.50,30.18,11,3,11,0.00
2013-10-30,48.2,43.3,37.2,48.2,43.3,35.1,100,100,92,30.19,29.78,9,2,9,0.00
2013-10-31,48.4,40.6,37.7,48.4,40.5,37.7,100,100,96,29.78,29.52,12,4,12,0.00
2013-11-1,49.4,41.4,35.0,39.6,31.6,22.5,100,72,38,29.98,29.53,14,4,14,0.00
2013-11-2,47.1,37.5,29.7,31.9,22.9,16.0,93,58,29,30.20,29.97,9,2,10,0.00
2013-11-3,52.3,43.2,32.0,32.5,21.4,14.1,95,45,22,30.22,29.99,40,10,40,0.00
2013-11-4,47.4,42.0,31.0,45.2,30.6,20.5,100,68,36,30.26,29.94,27,7,27,0.00
2013-11-5,41.1,33.0,25.6,37.9,27.0,15.8,100,83,38,30.34,30.11,12,1,26,0.00
2013-11-6,35.1,31.0,26.6,30.9,21.6,10.7,100,72,38,30.28,30.11,13,4,13,0.00
2013-11-7,31.5,27.9,23.4,30.2,25.7,16.2,100,92,65,30.34,30.26,13,4,13,0.00
2013-11-8,44.3,34.8,22.3,33.2,22.1,13.8,100,65,32,30.30,29.72,30,7,30,0.00
2013-11-9,43.8,39.1,33.4,33.6,23.1,12.1,68,53,36,30.32,29.74,23,10,23,0.00
2013-11-10,38.4,35.6,30.5,22.8,18.8,15.5,58,50,42,30.43,30.19,13,4,18,0.00
2013-11-11,36.6,22.9,14.2,25.3,2.1,-6.0,74,41,26,30.82,30.21,13,4,18,0.00
2013-11-12,25.3,17.3,10.4,2.7,-2.8,-9.4,57,42,22,30.87,30.53,12,4,12,0.00
2013-11-13,23.8,22.9,21.2,0.8,-1.2,-2.2,40,34,32,30.53,30.42,12,6,14,0.00
2013-11-15,53.9,44.8,29.6,34.4,27.0,22.5,96,53,30,30.42,30.21,17,4,17,0.00
2013-11-16,49.7,43.9,40.5,49.7,38.8,23.8,100,84,48,30.21,29.80,17,6,21,0.00
2013-11-17,42.3,37.4,29.8,39.9,28.2,15.2,100,70,54,30.41,29.89,21,8,25,0.00
2013-11-18,33.9,27.4,19.1,16.1,10.6,7.6,72,50,33,30.81,30.41,20,6,24,0.00
2013-11-19,44.3,33.6,18.0,18.2,14.6,10.9,84,48,28,30.82,30.47,30,9,30,0.00
2013-11-20,42.7,39.4,35.6,27.7,18.1,6.9,72,45,23,30.60,30.44,25,8,27,0.00
2013-11-21,36.0,28.8,22.4,35.4,22.1,4.2,99,77,45,31.06,30.59,12,3,27,0.00
2013-11-22,30.1,20.8,10.9,4.4,-2.1,-13.5,63,39,14,31.16,30.99,17,5,17,0.00
2013-11-23,16.1,9.7,5.0,-5.8,-12.3,-20.9,52,37,18,31.38,31.16,15,3,15,0.00
2013-11-24,27.8,16.9,3.0,0.9,-6.6,-12.3,53,36,22,31.25,30.56,27,7,27,0.00
2013-11-25,37.3,31.5,25.4,17.7,10.6,1.0,58,42,31,30.64,30.47,24,9,25,0.00
2013-11-26,28.5,19.0,12.3,8.5,-9.7,-18.0,43,28,18,30.92,30.63,19,6,25,0.00
2013-11-27,22.1,15.2,5.3,-0.6,-7.1,-10.7,59,38,23,30.93,30.62,14,3,21,0.00
2013-11-28,25.3,19.4,7.8,0.7,-1.8,-4.6,57,39,30,31.06,30.61,13,2,13,0.00
2013-11-29,30.8,21.0,5.3,10.1,2.5,-5.9,66,46,26,31.06,30.68,20,4,20,0.00
2013-11-30,35.0,30.6,25.4,16.6,14.2,10.0,63,51,42,30.72,30.58,14,1,18,0.00
2013-12-1,32.6,25.2,15.7,18.4,13.4,7.5,78,61,46,30.74,30.47,4,0,10,0.00
2013-12-2,36.0,31.5,25.5,33.7,24.6,16.2,100,77,57,30.47,30.13,13,4,13,0.00
2013-12-3,33.8,32.2,30.1,33.3,31.9,30.1,100,99,93,30.34,30.13,11,3,15,0.00
2013-12-4,30.1,25.6,9.7,30.1,23.5,-4.0,100,93,53,30.33,30.03,21,6,23,0.00
2013-12-5,9.7,3.2,-3.2,-3.6,-13.4,-20.2,55,45,38,30.90,30.30,25,11,25,0.00
2013-12-6,-0.8,-5.3,-9.4,-19.6,-23.5,-27.8,44,40,34,31.18,30.89,12,6,22,0.00
2013-12-7,-1.7,-8.3,-14.8,-20.4,-27.6,-32.1,46,37,28,31.26,31.10,11,3,11,0.00
2013-12-8,10.0,4.9,-4.8,-1.7,-8.3,-20.7,61,53,45,31.10,30.57,9,2,12,0.00
2013-12-9,8.8,-2.0,-6.9,-1.6,-19.3,-27.1,62,43,32,30.67,30.41,20,6,20,0.00
2013-12-10,13.7,6.0,-0.2,1.5,-11.5,-19.9,60,44,33,30.82,30.31,22,8,24,0.00
2013-12-11,5.3,-5.0,-10.0,-13.3,-26.9,-31.0,41,33,26,31.10,30.82,16,5,16,0.00
2013-12-12,5.7,3.7,0.3,-13.0,-15.8,-19.9,42,39,37,30.84,30.77,11,6,13,0.00
2013-12-17,27.3,18.6,2.2,14.2,-0.4,-11.4,58,43,31,30.45,30.24,22,7,25,0.00
2013-12-18,34.7,22.4,2.0,15.9,6.2,-11.2,63,50,33,30.41,29.98,17,4,19,0.00
2013-12-19,26.4,17.0,14.3,13.6,1.1,-5.6,58,49,40,30.40,30.13,12,2,12,0.00
2013-12-20,17.1,15.4,13.4,4.2,2.7,1.4,62,57,51,30.35,30.18,7,0,9,0.00
2013-12-21,20.4,17.0,13.7,4.6,2.7,0.5,59,53,45,30.32,30.18,9,1,9,0.00
2013-12-22,16.3,11.2,0.4,4.5,-2.6,-16.0,59,53,45,30.58,30.26,12,3,12,0.00
2013-12-23,0.4,-5.0,-10.9,-15.6,-25.2,-32.7,46,36,30,30.82,30.57,13,6,13,0.00
2013-12-24,9.0,-2.6,-17.6,-5.8,-23.7,-37.4,56,37,15,30.81,30.45,18,4,19,0.00
2013-12-25,26.3,15.4,8.2,16.7,1.5,-6.4,75,55,31,30.48,30.36,17,4,17,0.00
2013-12-26,25.1,17.5,6.9,13.1,6.0,-4.8,69,60,53,30.50,30.39,4,0,9,0.00
2013-12-27,38.0,27.6,8.6,24.9,17.3,-0.7,94,67,43,30.49,30.24,20,4,20,0.00
2013-12-28,44.0,31.0,19.1,28.5,20.5,9.6,99,70,29,30.32,29.98,13,3,13,0.00
2013-12-29,18.9,-2.3,-17.1,9.4,-25.3,-40.3,66,33,19,30.64,30.32,17,5,17,0.00
2013-12-30,-0.6,-8.0,-19.3,-15.5,-25.3,-40.7,51,42,31,30.62,30.48,7,1,16,0.00
2013-12-31,-1.3,-7.9,-12.8,-20.4,-25.2,-31.5,49,42,34,30.72,30.51,6,1,6,0.00
2014-1-1,0.0,-4.4,-9.7,-20.8,-25.8,-31.0,41,34,32,30.80,30.69,9,2,9,0.00
2014-1-2,1.5,-6.1,-16.0,-23.1,-30.8,-39.4,36,29,16,30.81,30.69,6,1,6,0.00